sensor_id;sensor_type;location;lat;lon;timestamp;temperature;humidity
47162;DHT22;32921;53.256;8.198;2023-03-07T00:01:48;2.70;99.90
47162;DHT22;32921;53.256;8.198;2023-03-07T00:04:15;2.70;99.90
47162;DHT22;32921;53.256;8.198;2023-03-07T00:06:40;2.60;99.90
47162;DHT22;32921;53.256;8.198;2023-03-07T00:09:06;2.70;99.90
47162;DHT22;32921;53.256;8.198;2023-03-07T00:11:32;2.70;99.90
47162;DHT22;32921;53.256;8.198;2023-03-07T00:13:57;2.70;99.90
47162;DHT22;32921;53.256;8.198;2023-03-07T00:16:26;2.70;99.90
47162;DHT22;32921;53.256;8.198;2023-03-07T00:18:52;2.70;99.90
47162;DHT22;32921;53.256;8.198;2023-03-07T00:21:20;2.70;99.90
47162;DHT22;32921;53.256;8.198;2023-03-07T00:23:47;2.70;99.90
47162;DHT22;32921;53.256;8.198;2023-03-07T00:26:16;2.70;99.90
47162;DHT22;32921;53.256;8.198;2023-03-07T00:28:42;2.70;99.90
47162;DHT22;32921;53.256;8.198;2023-03-07T00:31:10;2.70;99.90
47162;DHT22;32921;53.256;8.198;2023-03-07T00:33:36;2.60;99.90
47162;DHT22;32921;53.256;8.198;2023-03-07T00:36:06;2.70;99.90
47162;DHT22;32921;53.256;8.198;2023-03-07T00:38:33;2.60;99.90
47162;DHT22;32921;53.256;8.198;2023-03-07T00:43:33;2.60;99.90
47162;DHT22;32921;53.256;8.198;2023-03-07T00:45:59;2.70;99.90
47162;DHT22;32921;53.256;8.198;2023-03-07T00:48:26;2.70;99.90
47162;DHT22;32921;53.256;8.198;2023-03-07T00:50:52;2.70;99.90
47162;DHT22;32921;53.256;8.198;2023-03-07T00:53:18;2.60;99.90
47162;DHT22;32921;53.256;8.198;2023-03-07T00:56:01;2.60;99.90
47162;DHT22;32921;53.256;8.198;2023-03-07T00:58:29;2.60;99.90
47162;DHT22;32921;53.256;8.198;2023-03-07T01:00:55;2.70;99.90
47162;DHT22;32921;53.256;8.198;2023-03-07T01:03:22;2.60;99.90
47162;DHT22;32921;53.256;8.198;2023-03-07T01:05:48;2.70;99.90
47162;DHT22;32921;53.256;8.198;2023-03-07T01:08:14;2.60;99.90
47162;DHT22;32921;53.256;8.198;2023-03-07T01:10:40;2.60;99.90
47162;DHT22;32921;53.256;8.198;2023-03-07T01:13:06;2.70;99.90
47162;DHT22;32921;53.256;8.198;2023-03-07T01:15:32;2.60;99.90
47162;DHT22;32921;53.256;8.198;2023-03-07T01:17:57;2.70;99.90
47162;DHT22;32921;53.256;8.198;2023-03-07T01:20:23;2.70;99.90
47162;DHT22;32921;53.256;8.198;2023-03-07T01:22:49;2.70;99.90
47162;DHT22;32921;53.256;8.198;2023-03-07T01:25:15;2.70;99.90
47162;DHT22;32921;53.256;8.198;2023-03-07T01:27:40;2.70;99.90
47162;DHT22;32921;53.256;8.198;2023-03-07T01:30:07;2.70;99.90
47162;DHT22;32921;53.256;8.198;2023-03-07T01:32:33;2.70;99.90
47162;DHT22;32921;53.256;8.198;2023-03-07T01:34:58;2.80;99.90
47162;DHT22;32921;53.256;8.198;2023-03-07T01:37:24;2.70;99.90
47162;DHT22;32921;53.256;8.198;2023-03-07T01:39:51;2.80;99.90
47162;DHT22;32921;53.256;8.198;2023-03-07T01:42:18;2.80;99.90
47162;DHT22;32921;53.256;8.198;2023-03-07T01:46:19;2.80;99.90
47162;DHT22;32921;53.256;8.198;2023-03-07T01:47:53;2.90;99.90
47162;DHT22;32921;53.256;8.198;2023-03-07T01:50:18;2.80;99.90
47162;DHT22;32921;53.256;8.198;2023-03-07T01:52:47;2.90;99.90
47162;DHT22;32921;53.256;8.198;2023-03-07T01:55:22;2.90;99.90
47162;DHT22;32921;53.256;8.198;2023-03-07T01:57:49;3.00;99.90
47162;DHT22;32921;53.256;8.198;2023-03-07T02:00:18;3.00;99.90
47162;DHT22;32921;53.256;8.198;2023-03-07T02:05:46;3.10;99.90
47162;DHT22;32921;53.256;8.198;2023-03-07T02:08:15;3.10;99.90
47162;DHT22;32921;53.256;8.198;2023-03-07T02:10:42;3.10;99.90
47162;DHT22;32921;53.256;8.198;2023-03-07T02:13:08;3.00;99.90
47162;DHT22;32921;53.256;8.198;2023-03-07T02:15:34;3.10;99.90
47162;DHT22;32921;53.256;8.198;2023-03-07T02:18:01;3.10;99.90
47162;DHT22;32921;53.256;8.198;2023-03-07T02:20:46;3.10;99.90
47162;DHT22;32921;53.256;8.198;2023-03-07T02:23:52;3.10;99.90
47162;DHT22;32921;53.256;8.198;2023-03-07T02:26:44;3.10;99.90
47162;DHT22;32921;53.256;8.198;2023-03-07T02:29:10;3.10;99.90
47162;DHT22;32921;53.256;8.198;2023-03-07T02:31:36;3.10;99.90
47162;DHT22;32921;53.256;8.198;2023-03-07T02:34:01;3.10;99.90
47162;DHT22;32921;53.256;8.198;2023-03-07T02:36:33;3.10;99.90
47162;DHT22;32921;53.256;8.198;2023-03-07T02:39:01;3.10;99.90
47162;DHT22;32921;53.256;8.198;2023-03-07T02:41:29;3.00;99.90
47162;DHT22;32921;53.256;8.198;2023-03-07T02:43:56;2.90;99.90
47162;DHT22;32921;53.256;8.198;2023-03-07T02:46:21;2.90;99.90
47162;DHT22;32921;53.256;8.198;2023-03-07T02:48:47;2.80;99.90
47162;DHT22;32921;53.256;8.198;2023-03-07T02:51:13;2.80;99.90
47162;DHT22;32921;53.256;8.198;2023-03-07T02:53:38;2.90;99.90
47162;DHT22;32921;53.256;8.198;2023-03-07T02:56:05;2.80;99.90
47162;DHT22;32921;53.256;8.198;2023-03-07T02:58:31;2.80;99.90
47162;DHT22;32921;53.256;8.198;2023-03-07T03:00:56;2.90;99.90
47162;DHT22;32921;53.256;8.198;2023-03-07T03:03:22;2.80;99.90
47162;DHT22;32921;53.256;8.198;2023-03-07T03:05:47;2.80;99.90
47162;DHT22;32921;53.256;8.198;2023-03-07T03:08:13;2.70;99.90
47162;DHT22;32921;53.256;8.198;2023-03-07T03:10:39;2.70;99.90
47162;DHT22;32921;53.256;8.198;2023-03-07T03:13:04;2.60;99.90
47162;DHT22;32921;53.256;8.198;2023-03-07T03:15:30;2.50;99.90
47162;DHT22;32921;53.256;8.198;2023-03-07T03:17:56;2.50;99.90
47162;DHT22;32921;53.256;8.198;2023-03-07T03:20:21;2.50;99.90
47162;DHT22;32921;53.256;8.198;2023-03-07T03:22:50;2.40;99.90
47162;DHT22;32921;53.256;8.198;2023-03-07T03:25:16;2.50;99.90
47162;DHT22;32921;53.256;8.198;2023-03-07T03:27:42;2.40;99.90
47162;DHT22;32921;53.256;8.198;2023-03-07T03:30:10;2.30;99.90
47162;DHT22;32921;53.256;8.198;2023-03-07T03:32:37;2.30;99.90
47162;DHT22;32921;53.256;8.198;2023-03-07T03:35:03;2.30;99.90
47162;DHT22;32921;53.256;8.198;2023-03-07T03:37:30;2.30;99.90
47162;DHT22;32921;53.256;8.198;2023-03-07T03:39:55;2.30;99.90
47162;DHT22;32921;53.256;8.198;2023-03-07T03:42:21;2.20;99.90
47162;DHT22;32921;53.256;8.198;2023-03-07T03:44:47;2.30;99.90
47162;DHT22;32921;53.256;8.198;2023-03-07T03:47:12;2.30;99.90
47162;DHT22;32921;53.256;8.198;2023-03-07T03:49:38;2.30;99.90
47162;DHT22;32921;53.256;8.198;2023-03-07T03:52:04;2.50;99.90
47162;DHT22;32921;53.256;8.198;2023-03-07T03:54:30;2.50;99.90
47162;DHT22;32921;53.256;8.198;2023-03-07T03:56:55;2.50;99.90
47162;DHT22;32921;53.256;8.198;2023-03-07T03:59:21;2.40;99.90
47162;DHT22;32921;53.256;8.198;2023-03-07T04:01:47;2.40;99.90
47162;DHT22;32921;53.256;8.198;2023-03-07T04:04:13;2.30;99.90
47162;DHT22;32921;53.256;8.198;2023-03-07T04:06:38;2.30;99.90
47162;DHT22;32921;53.256;8.198;2023-03-07T04:09:04;2.30;99.90
47162;DHT22;32921;53.256;8.198;2023-03-07T04:11:30;2.20;99.90
47162;DHT22;32921;53.256;8.198;2023-03-07T04:13:56;2.30;99.90
47162;DHT22;32921;53.256;8.198;2023-03-07T04:16:21;2.20;99.90
47162;DHT22;32921;53.256;8.198;2023-03-07T04:18:47;2.20;99.90
47162;DHT22;32921;53.256;8.198;2023-03-07T04:21:15;2.20;99.90
47162;DHT22;32921;53.256;8.198;2023-03-07T04:23:41;2.20;99.90
47162;DHT22;32921;53.256;8.198;2023-03-07T04:26:07;2.20;99.90
47162;DHT22;32921;53.256;8.198;2023-03-07T04:28:38;2.20;99.90
47162;DHT22;32921;53.256;8.198;2023-03-07T04:31:11;2.20;99.90
47162;DHT22;32921;53.256;8.198;2023-03-07T04:33:37;2.10;99.90
47162;DHT22;32921;53.256;8.198;2023-03-07T04:36:02;2.10;99.90
47162;DHT22;32921;53.256;8.198;2023-03-07T04:38:28;2.10;99.90
47162;DHT22;32921;53.256;8.198;2023-03-07T04:40:54;2.20;99.90
47162;DHT22;32921;53.256;8.198;2023-03-07T04:43:19;2.20;99.90
47162;DHT22;32921;53.256;8.198;2023-03-07T04:45:46;2.10;99.90
47162;DHT22;32921;53.256;8.198;2023-03-07T04:48:11;2.10;99.90
47162;DHT22;32921;53.256;8.198;2023-03-07T04:50:37;2.00;99.90
47162;DHT22;32921;53.256;8.198;2023-03-07T04:53:02;2.00;99.90
47162;DHT22;32921;53.256;8.198;2023-03-07T04:55:28;2.00;99.90
47162;DHT22;32921;53.256;8.198;2023-03-07T04:57:54;2.00;99.90
47162;DHT22;32921;53.256;8.198;2023-03-07T05:00:22;2.00;99.90
47162;DHT22;32921;53.256;8.198;2023-03-07T05:02:48;2.00;99.90
47162;DHT22;32921;53.256;8.198;2023-03-07T05:05:14;2.00;99.90
47162;DHT22;32921;53.256;8.198;2023-03-07T05:07:40;2.00;99.90
47162;DHT22;32921;53.256;8.198;2023-03-07T05:10:06;2.00;99.90
47162;DHT22;32921;53.256;8.198;2023-03-07T05:12:32;1.90;99.90
47162;DHT22;32921;53.256;8.198;2023-03-07T05:14:58;1.90;99.90
47162;DHT22;32921;53.256;8.198;2023-03-07T05:17:25;1.90;99.90
47162;DHT22;32921;53.256;8.198;2023-03-07T05:19:50;1.90;99.90
47162;DHT22;32921;53.256;8.198;2023-03-07T05:22:16;1.80;99.90
47162;DHT22;32921;53.256;8.198;2023-03-07T05:24:42;1.90;99.90
47162;DHT22;32921;53.256;8.198;2023-03-07T05:27:08;1.90;99.90
47162;DHT22;32921;53.256;8.198;2023-03-07T05:29:34;2.00;99.90
47162;DHT22;32921;53.256;8.198;2023-03-07T05:31:59;2.00;99.90
47162;DHT22;32921;53.256;8.198;2023-03-07T05:34:25;1.90;99.90
47162;DHT22;32921;53.256;8.198;2023-03-07T05:36:51;1.80;99.90
47162;DHT22;32921;53.256;8.198;2023-03-07T05:39:17;1.80;99.90
47162;DHT22;32921;53.256;8.198;2023-03-07T05:41:42;1.80;99.90
47162;DHT22;32921;53.256;8.198;2023-03-07T05:44:08;1.90;99.90
47162;DHT22;32921;53.256;8.198;2023-03-07T05:46:33;1.90;99.90
47162;DHT22;32921;53.256;8.198;2023-03-07T05:48:59;2.00;99.90
47162;DHT22;32921;53.256;8.198;2023-03-07T05:51:25;2.00;99.90
47162;DHT22;32921;53.256;8.198;2023-03-07T05:53:50;2.10;99.90
47162;DHT22;32921;53.256;8.198;2023-03-07T05:56:16;2.10;99.90
47162;DHT22;32921;53.256;8.198;2023-03-07T05:58:41;2.10;99.90
47162;DHT22;32921;53.256;8.198;2023-03-07T06:01:07;2.20;99.90
47162;DHT22;32921;53.256;8.198;2023-03-07T06:03:33;2.20;99.90
47162;DHT22;32921;53.256;8.198;2023-03-07T06:05:58;2.20;99.90
47162;DHT22;32921;53.256;8.198;2023-03-07T06:08:24;2.20;99.90
47162;DHT22;32921;53.256;8.198;2023-03-07T06:10:50;2.00;99.90
47162;DHT22;32921;53.256;8.198;2023-03-07T06:13:21;2.00;99.90
47162;DHT22;32921;53.256;8.198;2023-03-07T06:15:52;2.00;99.90
47162;DHT22;32921;53.256;8.198;2023-03-07T06:18:18;2.10;99.90
47162;DHT22;32921;53.256;8.198;2023-03-07T06:20:53;2.10;99.90
47162;DHT22;32921;53.256;8.198;2023-03-07T06:23:19;2.20;99.90
47162;DHT22;32921;53.256;8.198;2023-03-07T06:25:45;2.20;99.90
47162;DHT22;32921;53.256;8.198;2023-03-07T06:28:10;2.20;99.90
47162;DHT22;32921;53.256;8.198;2023-03-07T06:30:36;2.20;99.90
47162;DHT22;32921;53.256;8.198;2023-03-07T06:33:01;2.20;99.90
47162;DHT22;32921;53.256;8.198;2023-03-07T06:35:45;2.20;99.90
47162;DHT22;32921;53.256;8.198;2023-03-07T06:38:12;2.20;99.90
47162;DHT22;32921;53.256;8.198;2023-03-07T06:40:39;2.20;99.90
47162;DHT22;32921;53.256;8.198;2023-03-07T06:43:04;2.20;99.90
47162;DHT22;32921;53.256;8.198;2023-03-07T06:45:30;2.30;99.90
47162;DHT22;32921;53.256;8.198;2023-03-07T06:47:56;2.40;99.90
47162;DHT22;32921;53.256;8.198;2023-03-07T06:50:22;2.40;99.90
47162;DHT22;32921;53.256;8.198;2023-03-07T06:52:47;2.50;99.90
47162;DHT22;32921;53.256;8.198;2023-03-07T06:55:18;2.60;99.90
47162;DHT22;32921;53.256;8.198;2023-03-07T06:57:44;2.70;99.90
47162;DHT22;32921;53.256;8.198;2023-03-07T07:00:10;2.70;99.90
47162;DHT22;32921;53.256;8.198;2023-03-07T07:02:36;2.70;99.90
47162;DHT22;32921;53.256;8.198;2023-03-07T07:05:03;2.70;99.90
47162;DHT22;32921;53.256;8.198;2023-03-07T07:07:28;2.80;99.90
47162;DHT22;32921;53.256;8.198;2023-03-07T07:09:54;2.90;99.90
47162;DHT22;32921;53.256;8.198;2023-03-07T07:12:20;2.90;99.90
47162;DHT22;32921;53.256;8.198;2023-03-07T07:14:45;2.80;99.90
47162;DHT22;32921;53.256;8.198;2023-03-07T07:17:11;2.70;99.90
47162;DHT22;32921;53.256;8.198;2023-03-07T07:19:37;2.40;99.90
47162;DHT22;32921;53.256;8.198;2023-03-07T07:22:02;2.20;99.90
47162;DHT22;32921;53.256;8.198;2023-03-07T07:24:28;2.20;99.90
47162;DHT22;32921;53.256;8.198;2023-03-07T07:26:54;2.20;99.90
47162;DHT22;32921;53.256;8.198;2023-03-07T07:29:20;2.20;99.90
47162;DHT22;32921;53.256;8.198;2023-03-07T07:31:46;2.20;99.90
47162;DHT22;32921;53.256;8.198;2023-03-07T07:34:14;2.20;99.90
47162;DHT22;32921;53.256;8.198;2023-03-07T07:36:39;2.20;99.90
47162;DHT22;32921;53.256;8.198;2023-03-07T07:39:06;2.20;99.90
47162;DHT22;32921;53.256;8.198;2023-03-07T07:41:32;2.30;99.90
47162;DHT22;32921;53.256;8.198;2023-03-07T07:43:58;2.30;99.90
47162;DHT22;32921;53.256;8.198;2023-03-07T07:46:24;2.40;99.90
47162;DHT22;32921;53.256;8.198;2023-03-07T07:48:52;2.40;99.90
47162;DHT22;32921;53.256;8.198;2023-03-07T07:51:18;2.50;99.90
47162;DHT22;32921;53.256;8.198;2023-03-07T07:53:43;2.50;99.90
47162;DHT22;32921;53.256;8.198;2023-03-07T07:56:09;2.50;99.90
47162;DHT22;32921;53.256;8.198;2023-03-07T07:58:35;2.60;99.90
47162;DHT22;32921;53.256;8.198;2023-03-07T08:01:00;2.60;99.90
47162;DHT22;32921;53.256;8.198;2023-03-07T08:03:35;2.70;99.90
47162;DHT22;32921;53.256;8.198;2023-03-07T08:06:01;2.80;99.90
47162;DHT22;32921;53.256;8.198;2023-03-07T08:08:26;2.80;99.90
47162;DHT22;32921;53.256;8.198;2023-03-07T08:10:52;2.90;99.90
47162;DHT22;32921;53.256;8.198;2023-03-07T08:13:17;3.00;99.90
47162;DHT22;32921;53.256;8.198;2023-03-07T08:15:43;3.00;99.90
47162;DHT22;32921;53.256;8.198;2023-03-07T08:18:09;3.00;99.90
47162;DHT22;32921;53.256;8.198;2023-03-07T08:20:36;2.90;99.90
47162;DHT22;32921;53.256;8.198;2023-03-07T08:23:02;2.80;99.90
47162;DHT22;32921;53.256;8.198;2023-03-07T08:25:28;2.60;99.90
47162;DHT22;32921;53.256;8.198;2023-03-07T08:27:54;2.50;99.90
47162;DHT22;32921;53.256;8.198;2023-03-07T08:30:25;2.30;99.90
47162;DHT22;32921;53.256;8.198;2023-03-07T08:32:52;2.10;99.90
47162;DHT22;32921;53.256;8.198;2023-03-07T08:35:18;2.00;99.90
47162;DHT22;32921;53.256;8.198;2023-03-07T08:37:45;2.20;99.90
47162;DHT22;32921;53.256;8.198;2023-03-07T08:40:13;2.30;99.90
47162;DHT22;32921;53.256;8.198;2023-03-07T08:42:40;2.30;99.90
47162;DHT22;32921;53.256;8.198;2023-03-07T08:45:06;2.40;99.90
47162;DHT22;32921;53.256;8.198;2023-03-07T08:47:31;2.40;99.90
47162;DHT22;32921;53.256;8.198;2023-03-07T08:49:57;2.40;99.90
47162;DHT22;32921;53.256;8.198;2023-03-07T08:52:23;2.30;99.90
47162;DHT22;32921;53.256;8.198;2023-03-07T08:54:48;2.30;99.90
47162;DHT22;32921;53.256;8.198;2023-03-07T08:57:14;2.30;99.90
47162;DHT22;32921;53.256;8.198;2023-03-07T08:59:39;2.50;99.90
47162;DHT22;32921;53.256;8.198;2023-03-07T09:02:05;2.70;99.90
47162;DHT22;32921;53.256;8.198;2023-03-07T09:04:31;2.90;99.90
47162;DHT22;32921;53.256;8.198;2023-03-07T09:06:56;3.20;99.90
47162;DHT22;32921;53.256;8.198;2023-03-07T09:09:22;3.40;99.90
47162;DHT22;32921;53.256;8.198;2023-03-07T09:11:48;3.50;99.90
47162;DHT22;32921;53.256;8.198;2023-03-07T09:14:14;3.50;99.90
47162;DHT22;32921;53.256;8.198;2023-03-07T09:16:40;3.50;99.90
47162;DHT22;32921;53.256;8.198;2023-03-07T09:19:05;3.60;99.90
47162;DHT22;32921;53.256;8.198;2023-03-07T09:21:31;3.70;99.90
47162;DHT22;32921;53.256;8.198;2023-03-07T09:23:57;3.70;99.90
47162;DHT22;32921;53.256;8.198;2023-03-07T09:26:22;4.00;99.90
47162;DHT22;32921;53.256;8.198;2023-03-07T09:28:48;4.00;99.90
47162;DHT22;32921;53.256;8.198;2023-03-07T09:31:14;4.00;99.90
47162;DHT22;32921;53.256;8.198;2023-03-07T09:33:40;4.10;99.90
47162;DHT22;32921;53.256;8.198;2023-03-07T09:36:08;4.10;99.90
47162;DHT22;32921;53.256;8.198;2023-03-07T09:38:35;4.00;99.90
47162;DHT22;32921;53.256;8.198;2023-03-07T09:41:08;4.10;99.90
47162;DHT22;32921;53.256;8.198;2023-03-07T09:43:56;4.30;99.90
47162;DHT22;32921;53.256;8.198;2023-03-07T09:46:59;4.40;99.90
47162;DHT22;32921;53.256;8.198;2023-03-07T09:49:33;4.50;99.90
47162;DHT22;32921;53.256;8.198;2023-03-07T09:52:01;4.50;99.90
47162;DHT22;32921;53.256;8.198;2023-03-07T09:54:40;4.80;99.90
47162;DHT22;32921;53.256;8.198;2023-03-07T09:57:15;5.10;99.90
47162;DHT22;32921;53.256;8.198;2023-03-07T09:59:45;4.90;99.90
47162;DHT22;32921;53.256;8.198;2023-03-07T10:02:31;4.80;99.90
47162;DHT22;32921;53.256;8.198;2023-03-07T10:07:34;5.30;99.90
47162;DHT22;32921;53.256;8.198;2023-03-07T10:10:03;5.30;99.90
47162;DHT22;32921;53.256;8.198;2023-03-07T10:12:40;5.40;99.90
47162;DHT22;32921;53.256;8.198;2023-03-07T10:23:55;5.50;99.90
47162;DHT22;32921;53.256;8.198;2023-03-07T10:26:44;5.50;99.90
47162;DHT22;32921;53.256;8.198;2023-03-07T10:29:18;5.60;99.90
47162;DHT22;32921;53.256;8.198;2023-03-07T10:31:54;5.60;99.60
47162;DHT22;32921;53.256;8.198;2023-03-07T10:34:27;5.60;97.80
47162;DHT22;32921;53.256;8.198;2023-03-07T10:37:20;5.80;94.70
47162;DHT22;32921;53.256;8.198;2023-03-07T10:39:54;5.70;93.20
47162;DHT22;32921;53.256;8.198;2023-03-07T10:42:22;5.70;93.40
47162;DHT22;32921;53.256;8.198;2023-03-07T10:44:50;5.80;93.40
47162;DHT22;32921;53.256;8.198;2023-03-07T10:47:23;5.80;93.10
47162;DHT22;32921;53.256;8.198;2023-03-07T10:49:51;6.00;92.80
47162;DHT22;32921;53.256;8.198;2023-03-07T10:52:32;5.90;92.10
47162;DHT22;32921;53.256;8.198;2023-03-07T10:55:37;5.70;91.50
47162;DHT22;32921;53.256;8.198;2023-03-07T10:58:22;5.70;91.40
47162;DHT22;32921;53.256;8.198;2023-03-07T11:03:37;5.80;89.80
47162;DHT22;32921;53.256;8.198;2023-03-07T11:06:03;5.50;90.20
47162;DHT22;32921;53.256;8.198;2023-03-07T11:08:32;5.40;91.30
47162;DHT22;32921;53.256;8.198;2023-03-07T11:10:59;5.50;90.80
47162;DHT22;32921;53.256;8.198;2023-03-07T11:13:26;5.50;91.80
47162;DHT22;32921;53.256;8.198;2023-03-07T11:16:08;5.70;91.50
47162;DHT22;32921;53.256;8.198;2023-03-07T11:18:42;5.70;91.00
47162;DHT22;32921;53.256;8.198;2023-03-07T11:21:32;5.60;88.70
47162;DHT22;32921;53.256;8.198;2023-03-07T11:24:24;5.70;89.40
47162;DHT22;32921;53.256;8.198;2023-03-07T11:26:53;6.00;89.10
47162;DHT22;32921;53.256;8.198;2023-03-07T11:29:19;5.90;85.30
47162;DHT22;32921;53.256;8.198;2023-03-07T11:32:12;5.80;84.50
47162;DHT22;32921;53.256;8.198;2023-03-07T11:35:01;5.50;82.90
47162;DHT22;32921;53.256;8.198;2023-03-07T11:37:37;5.50;82.80
47162;DHT22;32921;53.256;8.198;2023-03-07T11:40:30;5.80;82.90
47162;DHT22;32921;53.256;8.198;2023-03-07T11:48:35;6.00;81.10
47162;DHT22;32921;53.256;8.198;2023-03-07T11:52:12;5.90;76.90
47162;DHT22;32921;53.256;8.198;2023-03-07T11:54:17;5.70;75.60
47162;DHT22;32921;53.256;8.198;2023-03-07T11:56:48;5.80;74.50
47162;DHT22;32921;53.256;8.198;2023-03-07T12:00:02;5.90;75.40
47162;DHT22;32921;53.256;8.198;2023-03-07T12:02:41;5.70;72.10
47162;DHT22;32921;53.256;8.198;2023-03-07T12:05:15;6.00;73.30
47162;DHT22;32921;53.256;8.198;2023-03-07T12:07:58;6.00;73.30
47162;DHT22;32921;53.256;8.198;2023-03-07T12:13:37;6.70;71.20
47162;DHT22;32921;53.256;8.198;2023-03-07T12:16:27;7.30;65.60
47162;DHT22;32921;53.256;8.198;2023-03-07T12:19:18;8.30;66.10
47162;DHT22;32921;53.256;8.198;2023-03-07T12:22:04;9.10;63.30
47162;DHT22;32921;53.256;8.198;2023-03-07T12:24:38;9.20;58.60
47162;DHT22;32921;53.256;8.198;2023-03-07T12:27:18;9.60;61.50
47162;DHT22;32921;53.256;8.198;2023-03-07T12:29:48;9.20;58.40
47162;DHT22;32921;53.256;8.198;2023-03-07T12:32:20;9.00;57.90
47162;DHT22;32921;53.256;8.198;2023-03-07T12:34:54;8.90;59.40
47162;DHT22;32921;53.256;8.198;2023-03-07T12:37:45;8.90;56.50
47162;DHT22;32921;53.256;8.198;2023-03-07T12:43:36;8.00;53.70
47162;DHT22;32921;53.256;8.198;2023-03-07T12:48:57;7.50;52.60
47162;DHT22;32921;53.256;8.198;2023-03-07T12:51:25;7.70;53.80
47162;DHT22;32921;53.256;8.198;2023-03-07T12:54:08;7.80;54.20
47162;DHT22;32921;53.256;8.198;2023-03-07T12:57:14;7.90;55.20
47162;DHT22;32921;53.256;8.198;2023-03-07T12:59:42;7.70;54.50
47162;DHT22;32921;53.256;8.198;2023-03-07T13:02:20;7.60;55.50
47162;DHT22;32921;53.256;8.198;2023-03-07T13:04:48;8.00;58.40
47162;DHT22;32921;53.256;8.198;2023-03-07T13:07:29;7.90;56.60
47162;DHT22;32921;53.256;8.198;2023-03-07T13:09:57;8.00;58.70
47162;DHT22;32921;53.256;8.198;2023-03-07T13:12:32;7.80;58.60
47162;DHT22;32921;53.256;8.198;2023-03-07T13:15:01;7.50;60.70
47162;DHT22;32921;53.256;8.198;2023-03-07T13:20:00;7.00;63.20
47162;DHT22;32921;53.256;8.198;2023-03-07T13:24:56;7.10;59.50
47162;DHT22;32921;53.256;8.198;2023-03-07T13:30:16;6.80;54.40
47162;DHT22;32921;53.256;8.198;2023-03-07T13:33:24;6.40;52.60
47162;DHT22;32921;53.256;8.198;2023-03-07T13:35:57;6.00;51.40
47162;DHT22;32921;53.256;8.198;2023-03-07T13:38:34;5.90;51.60
47162;DHT22;32921;53.256;8.198;2023-03-07T13:41:08;6.00;52.80
47162;DHT22;32921;53.256;8.198;2023-03-07T13:43:55;6.20;52.60
47162;DHT22;32921;53.256;8.198;2023-03-07T13:46:43;6.30;54.00
47162;DHT22;32921;53.256;8.198;2023-03-07T13:49:10;6.40;55.10
47162;DHT22;32921;53.256;8.198;2023-03-07T13:51:35;6.40;55.90
47162;DHT22;32921;53.256;8.198;2023-03-07T13:54:03;6.40;54.30
47162;DHT22;32921;53.256;8.198;2023-03-07T13:56:39;6.60;55.00
47162;DHT22;32921;53.256;8.198;2023-03-07T14:01:57;7.40;55.60
47162;DHT22;32921;53.256;8.198;2023-03-07T14:04:26;7.50;53.50
47162;DHT22;32921;53.256;8.198;2023-03-07T14:06:58;7.80;56.50
47162;DHT22;32921;53.256;8.198;2023-03-07T14:09:26;7.70;56.90
47162;DHT22;32921;53.256;8.198;2023-03-07T14:12:06;7.00;66.40
47162;DHT22;32921;53.256;8.198;2023-03-07T14:25:51;4.40;82.80
47162;DHT22;32921;53.256;8.198;2023-03-07T14:28:24;4.50;82.00
47162;DHT22;32921;53.256;8.198;2023-03-07T14:30:59;4.60;82.60
47162;DHT22;32921;53.256;8.198;2023-03-07T14:33:36;4.70;79.50
47162;DHT22;32921;53.256;8.198;2023-03-07T14:36:26;4.80;77.40
47162;DHT22;32921;53.256;8.198;2023-03-07T14:38:55;4.80;77.60
47162;DHT22;32921;53.256;8.198;2023-03-07T14:42:01;4.90;77.60
47162;DHT22;32921;53.256;8.198;2023-03-07T14:45:08;5.00;76.70
47162;DHT22;32921;53.256;8.198;2023-03-07T14:48:05;5.10;76.80
47162;DHT22;32921;53.256;8.198;2023-03-07T14:50:34;5.30;74.20
47162;DHT22;32921;53.256;8.198;2023-03-07T14:53:11;5.40;72.00
47162;DHT22;32921;53.256;8.198;2023-03-07T14:55:40;5.50;71.70
47162;DHT22;32921;53.256;8.198;2023-03-07T14:58:07;5.80;71.70
47162;DHT22;32921;53.256;8.198;2023-03-07T15:00:38;6.30;71.70
47162;DHT22;32921;53.256;8.198;2023-03-07T15:03:06;6.70;68.60
47162;DHT22;32921;53.256;8.198;2023-03-07T15:08:02;7.80;65.70
47162;DHT22;32921;53.256;8.198;2023-03-07T15:10:38;7.60;65.50
47162;DHT22;32921;53.256;8.198;2023-03-07T15:13:09;7.10;65.20
47162;DHT22;32921;53.256;8.198;2023-03-07T15:15:50;8.40;62.90
47162;DHT22;32921;53.256;8.198;2023-03-07T15:18:38;9.40;59.00
47162;DHT22;32921;53.256;8.198;2023-03-07T15:21:06;9.70;57.80
47162;DHT22;32921;53.256;8.198;2023-03-07T15:23:33;9.00;57.10
47162;DHT22;32921;53.256;8.198;2023-03-07T15:26:04;7.40;57.70
47162;DHT22;32921;53.256;8.198;2023-03-07T15:28:38;6.90;60.50
47162;DHT22;32921;53.256;8.198;2023-03-07T15:31:06;6.80;60.80
47162;DHT22;32921;53.256;8.198;2023-03-07T15:33:34;6.80;60.00
47162;DHT22;32921;53.256;8.198;2023-03-07T15:41:41;9.80;54.70
47162;DHT22;32921;53.256;8.198;2023-03-07T15:46:38;9.70;52.00
47162;DHT22;32921;53.256;8.198;2023-03-07T15:49:05;9.60;53.00
47162;DHT22;32921;53.256;8.198;2023-03-07T15:51:35;9.50;54.10
47162;DHT22;32921;53.256;8.198;2023-03-07T15:54:38;9.40;54.00
47162;DHT22;32921;53.256;8.198;2023-03-07T15:57:15;9.60;54.40
47162;DHT22;32921;53.256;8.198;2023-03-07T15:59:49;9.00;55.50
47162;DHT22;32921;53.256;8.198;2023-03-07T16:04:56;8.30;59.80
47162;DHT22;32921;53.256;8.198;2023-03-07T16:07:22;7.50;62.50
47162;DHT22;32921;53.256;8.198;2023-03-07T16:09:48;6.40;64.10
47162;DHT22;32921;53.256;8.198;2023-03-07T16:12:16;6.00;65.80
47162;DHT22;32921;53.256;8.198;2023-03-07T16:14:43;5.70;67.40
47162;DHT22;32921;53.256;8.198;2023-03-07T16:17:18;5.40;68.40
47162;DHT22;32921;53.256;8.198;2023-03-07T16:19:45;5.10;69.60
47162;DHT22;32921;53.256;8.198;2023-03-07T16:22:15;5.00;71.20
47162;DHT22;32921;53.256;8.198;2023-03-07T16:24:42;5.00;71.60
47162;DHT22;32921;53.256;8.198;2023-03-07T16:27:13;4.80;71.40
47162;DHT22;32921;53.256;8.198;2023-03-07T16:29:39;4.50;72.20
47162;DHT22;32921;53.256;8.198;2023-03-07T16:32:05;4.20;71.20
47162;DHT22;32921;53.256;8.198;2023-03-07T16:34:31;4.00;73.00
47162;DHT22;32921;53.256;8.198;2023-03-07T16:36:56;3.80;72.60
47162;DHT22;32921;53.256;8.198;2023-03-07T16:39:22;3.60;72.50
47162;DHT22;32921;53.256;8.198;2023-03-07T16:41:48;3.60;72.00
47162;DHT22;32921;53.256;8.198;2023-03-07T16:44:16;3.50;72.10
47162;DHT22;32921;53.256;8.198;2023-03-07T16:46:42;3.40;71.70
47162;DHT22;32921;53.256;8.198;2023-03-07T16:49:17;3.40;72.40
47162;DHT22;32921;53.256;8.198;2023-03-07T16:51:43;3.20;72.80
47162;DHT22;32921;53.256;8.198;2023-03-07T16:54:09;3.00;74.10
47162;DHT22;32921;53.256;8.198;2023-03-07T16:56:41;2.80;74.30
47162;DHT22;32921;53.256;8.198;2023-03-07T16:59:12;2.60;76.10
47162;DHT22;32921;53.256;8.198;2023-03-07T17:01:40;2.40;76.50
47162;DHT22;32921;53.256;8.198;2023-03-07T17:04:06;2.40;77.10
47162;DHT22;32921;53.256;8.198;2023-03-07T17:06:31;2.20;77.50
47162;DHT22;32921;53.256;8.198;2023-03-07T17:08:57;2.00;79.00
47162;DHT22;32921;53.256;8.198;2023-03-07T17:11:24;1.90;81.10
47162;DHT22;32921;53.256;8.198;2023-03-07T17:13:54;1.70;81.40